Timeline UpdatesTrip UpdatesNews PostsPvt PostsTravel TipsAdmin PostsConv PostsFollowed PostsChat RequestsBlog PostsPNR Posts

Disclaimer
Search
 
 
Tue Sep 16, 2014 08:28:26 ISTHomeTrainsΣChainsAtlasPNRForumGalleryNewsFAQTripsMembersLoginFeedback
No Recent News for this Train
Other Trains in the News **new
Latest...
.
Wed Apr 23, 2014 (07:20PM)
⇐ Return Journey: Train# 12649

12650/Karnataka Sampark Kranti Express (Via Kacheguda)

Time-Table HAS CHANGED.
Sep 03 (8:53PM)
Change Departure Station:
Change Arrival Station:
Post a Train Travel TipPost a Train Travel Tip **new
Post a Comment/Question/Picture/VideoPost a Comment/Question/Picture/Video
Inaugural Run
Thu Feb 12, 2004
Pantry/Catering
✓ Pantry Car Avbl
✓ Catering Avbl
RSA - Rake Sharing
12629/30
Rake/Coach Composition
Loco<-SLR-GN-HA1-A1-B1-B2-B3-B4-S10-S9-S8-PC-S7-S6-S5-S4-S3-S2-S1-HCPV-HCPV-HCPV-HCPV-GS-SLR & SLRHPCV-HPCV-HPCV-GN-HA1-A1-B1-B2-B3-B4-S1-S2-S3-PC-S4-S5-S6-S7-S8-S9-S10-GN-SLR>Loco =24 Coach Train, Train have 2 Rake pattern.
Loco
NZM-KCG: LGD WAP-7 KCG-YPR: KJM WDP 4/4B
News    PNR    Forum    Time-Table    Availability    Fare Chart    Map    Arr/Dep History    Trips    Gallery    ΣChains    X/O    Timeline    
Travel Time: 36h 30m    6 halts    Distance: 2331 km    Avg Speed: 63 km/hr
Type: Sampark Kranti
Zone: SWR/South Western
Departs @ 06:40 (Avg on time)
Platform# 7
SMT T S
Delhi Hazrat Nizamuddin/NZM 
Arrives @ 19:10 +1 night (Avg 41m late)
Platform# 4
SMTW F 
Yesvantpur Junction/YPR 

6 halts. 292 intermediate Stations between Delhi Hazrat Nizamuddin and Yesvantpur Junction

Hide intermediate Stations  Show Old Time-Table

#CodeStation NameX/OArrivesAvgDepartsAvgHaltPFDay#KmSpeedElevZoneAddress
1NZM»Delhi Hazrat Nizamuddin (7)»  -06:45 06:40+0710.074209mNRNew Delhi 110013, Delhi NCT
1.1OKAOkhla (4)  06:43-06:43-  13.7 74221mNRIshwar Nagar Mathura Road, Delhi NCT
1.2TKECTuglakabad East Cabin  06:45-06:45-  16.8 74214mNROkhla Indl Area II, Delhi NCT
1.3TKDTuglakabad (4)X  06:48-06:48-  19.7 74213mNRNear Tughlakabad Metro Station, Delhi NCT
1.4TKDCTughlakabad CabinX  06:52-06:52-  115.5 74210mNRFaridabad, Haryana
1.5FDBFaridabad (4)X  06:57-06:57-  120.8 74206mNRold Faridabad, Haryana
1.6FDNFaridabad New Town (3)  07:00-07:00-  124.7 74204mNRFaridabad, Haryana
1.7BVHBallabgarh (5)  07:03-07:03-  128.9 74203mNRFaridabad, Haryana
1.8PYLAPiyala Block Hut  07:08-07:08-  134.7 74200mNRLadholi - Shahpur Kalan - Sunped Road, Haryana
1.9ASTAsaoti (5)  07:11-07:11-  138.8 74203mNRAsaoti, Haryana
1.10PWLPalwal (8)X  07:20-07:20-  150.0 74200mNRPalwal, Haryana
1.11RDERundhi (4)  07:28-07:28-  159.3 74194mNCRRundhi, Haryana
1.12SHLKSholaka (4)  07:36-07:36-  169.8 74 NCRFaridabad, Haryana
1.13BNCRBanchari (2)X  07:39-07:39-  173.1 74189mNCRNational Highway 2, Haryana
1.14HDLHodal (4)X  07:45-07:45-  180.2 74191mNCRFaridabad, Haryana
1.15KSVKosi Kalan (3)X  07:55-07:55-  192.5 74189mNCRKosi Kalan, Uttar Pradesh
1.16CHJChata (4)X  08:03-08:03-  1102.8 74 NCRChhata, Uttar Pradesh
1.17AJHAjhai (2)X  08:11-08:11-  1112.8 74 NCRAjhai, Uttar Pradesh
1.18VRBDVrindaban Road (3)X  08:20-08:20-  1123.8 74179mNCRVrindaban, Uttar Pradesh
1.19BTSRBhuteshwar (3)X  08:26-08:26-  1131.3 74181mNCRMathura, Uttar Pradesh
1.20MTJMathura Junction (10)X  08:28-08:28-  1134.0 74179mNCRMathura, Uttar Pradesh
1.21BADBaad (3)XO  08:36-08:36-  1143.9 74184mNCRBaad, Uttar Pradesh
1.22FARFarah (3)  08:43-08:43-  1152.6 74175mNCRFarah, Uttar Pradesh
1.23FHTFarah Town (2)X  08:45-08:45-  1154.9 74174mNCRFarah, Uttar Pradesh
1.24KXMKitham (3)X  08:52-08:52-  1164.1 74175mNCRKitham, Uttar Pradesh
1.25RNKARunkuta (3)  08:59-08:59-  1173.1 74172mNCRAGRA, Uttar Pradesh
1.26BFPBilochpura Agra (2)  09:07-09:07-  1182.2 74172mNCRAgra, Uttar Pradesh
1.27RKMRaja Ki Mandi (4)  09:08-09:08-  1183.6 74170mNCRAgra, Uttar Pradesh
1.28AGCAgra Cantt. (6)XO  09:11-09:11-  1187.6 74174mNCRAgra, Uttar Pradesh
1.29BHABhandaiX  09:19-09:19-  1197.9 74170mNCRBhandai, Uttar Pradesh
1.30JJJajauX  09:32-09:32-  1213.3 74 NCRJajau, Uttar Pradesh
1.31MIAManiaX  09:44-09:44-  1227.8 74 NCRManda, Rajasthan
1.32DHODholpur Junction (3)  09:54-09:54-  1240.2 74177mNCRDholpur, Rajasthan
1.33GHERGher  09:58-09:58-  1245.9 74152mNCRDhaulpur, Rajasthan
1.34HETHetampur  10:04-10:04-  1253.0 74175mNCRDhaulpur, Rajasthan
1.35SIKDSikroda KwanriX  10:08-10:08-  1258.1 74175mNCRNH 3, Madhya Pradesh
1.36MRAMorena (3)  10:15-10:15-  1267.1 74176mNCRMorena, Madhya Pradesh
1.37SANKSank  10:23-10:23-  1276.8 74179mNCRMorena(0753-2226392), Madhya Pradesh
1.38NUBNurabadX  10:26-10:26-  1280.3 74179mNCRMorena(0753-2226392), Madhya Pradesh
1.39BAOBanmor  10:31-10:31-  1286.4 74189mNCRGwalior, Madhya Pradesh
1.40RRURayaru  10:36-10:36-  1292.5 74196mNCRGwalior, Madhya Pradesh
1.41BLNRBirlanagar (3)  10:44-10:44-  1303.0 74206mNCRGwalior, Madhya Pradesh
1.42GWLGwalior Junction (4)XO  10:46-10:46-  1305.6 74214mNCRGwalior, Madhya Pradesh
1.43STLISithouli (2)  10:53-10:53-  1314.4 74228mNCRGwalior, Madhya Pradesh
1.44SLVSandalpur  10:59-10:59-  1321.8 74264mNCRGwalior, Madhya Pradesh
1.45ARIAntri  11:04-11:04-  1327.8 74257mNCRGwalior, Madhya Pradesh
1.46AEHAnant PaithX  11:12-11:12-  1338.0 74228mNCRGwalior, Madhya Pradesh
1.47SMTLSimariatal  11:16-11:16-  1342.7 74210mNCRSimiriya Tal, Madhya Pradesh
1.48DBADabra (3)X  11:20-11:20-  1348.0 74 NCRDabra(District-Gwalior), Madhya Pradesh
1.49KTRAKotra  11:28-11:28-  1357.5 74205mNCRNH 75, Madhya Pradesh
1.50SORSonagir (2)  11:36-11:36-  1366.8 74211mNCRDatia, Madhya Pradesh
1.51DAADatia (2)O  11:45-11:45-  1378.3 74264mNCRDatia, Madhya Pradesh
1.52KRQKarari  11:56-11:56-  1391.9 74243mNCRNational Highway 75, Madhya Pradesh
2JHSJhansi Junction (7)X  12:05+1412:13 12:15+188 10m21403.476259mNCRJhansi, Uttar Pradesh
2.1JHSAJhansi A CabinX  12:17-12:17-  1406.2 76258mNCRJhansi, Uttar Pradesh
2.2BJIBijauli (3)  12:22-12:22-  1411.8 76273mNCRJhansi, Uttar Pradesh
2.3KHJKhajraha (3)  12:29-12:29-  1420.8 76277mNCRJhansi(0510-2440441), Uttar Pradesh
2.4BABBabina (3)  12:35-12:35-  1428.9 76285mNCRBabina, Uttar Pradesh
2.5BPWBurhpura (3)  12:39-12:39-  1434.0 76303mNCRBabina, Uttar Pradesh
2.6BZYBasai (3)X  12:45-12:45-  1441.0 76287mNCR07522289600(Gate ManMob. - 9452701575), Madhya Pradesh
2.7MZXMatatila (3)X  12:51-12:51-  1448.5 76 NCRKhaniyadhana, Madhya Pradesh
2.8TBTTalbahat (4)  12:55-12:55-  1453.8 76314mNCRKhaniyadhana Station Rd, Madhya Pradesh
2.9DLADoultaX  12:59-12:59-  1459.0 76327mNCRTalbehat, Madhya Pradesh
2.10BJABijrotha (2)X  13:03-13:03-  1464.5 76353mNCRDistrict Lalitpur(05176-272220), Uttar Pradesh
2.11JHAJakhaura (3)X  13:10-13:10-  1473.2 76361mNCRDistrict Lalitpur, Uttar Pradesh
2.12DWADailwara (3)X  13:18-13:18-  1483.3 76367mNCRDailwara(05176-272220), Uttar Pradesh
2.13LARLalitpur (3)X  13:26-13:26-  1493.7 76373mNCRLalitpur, Uttar Pradesh
2.14JROJiron (3)X  13:34-13:34-  1503.2 76384mNCRSonebhadra, Uttar Pradesh
2.15JLNJakhalaun (3)X  13:39-13:39-  1510.4 76394mNCRLalitpur(05176-272220), Uttar Pradesh
2.16DUADhaura (3)X  13:49-13:49-  1522.0 76407mNCRDhaura Tanda, Madhya Pradesh
2.17MXSMohasa (3)  13:56-13:56-  1530.9 76414mNCRBina, Madhya Pradesh
2.18KOAKaronda  14:00-14:00-  1536.9 76 NCRBina, Madhya Pradesh
2.19AGDAgasodO  14:09-14:09-  1548.6 76427mNCRBina, Madhya Pradesh
2.20BINABina Junction (5)  14:16-14:16-  1556.6 76414mWCRJn Pt - KATNI/GUNA/ BPL/JHS, Madhya Pradesh
2.21KIKAKurwai Kethora (2)  14:23-14:23-  1565.9 76407mWCRBina, Madhya Pradesh
2.22MABAMandi Bamora (3)  14:29-14:29-  1573.8 76413mWCRState Highway 14, Madhya Pradesh
2.23KAHKalhar (3)  14:36-14:36-  1582.6 76409mWCRSagar, Madhya Pradesh
2.24CLHTChulhetaO  14:41-14:41-  1588.1 76401mWCRBareth, Madhya Pradesh
2.25BETBareth (4)  14:44-14:44-  1592.5 76418mWCRState Highway 19, Madhya Pradesh
2.26RKDIRaukheri  14:49-14:49-  1599.2 76417mWCRParsora Basoda, Madhya Pradesh
2.27RKRIRao Khedi  14:49-14:49-  1599.2 76417mWCRGanj Basoda, Madhya Pradesh
2.28BAQGanj Basoda (4)X  14:52-14:52-  1602.3 76 WCRVidisha, Madhya Pradesh
2.29PAIPabai (3)X  14:59-14:59-  1611.1 76 WCRVidisha, Madhya Pradesh
2.30GLGGulabhGanj (3)  15:06-15:06-  1620.6 76 WCRVidisha, Madhya Pradesh
2.31SUMRSumer (3)  15:12-15:12-  1628.1 76 WCRVidisha, Madhya Pradesh
2.32SORISorai (3)  15:19-15:19-  1636.3 76428mWCRVidisha, Madhya Pradesh
2.33BHSVidisha (3)  15:23-15:23-  1641.6 76 WCRVidisha, Madhya Pradesh
2.34BTWNBetwa CabinX  15:26-15:26-  1645.2 76422mWCRVidisha, Madhya Pradesh
2.35SCISanchi (2)X  15:30-15:30-  1651.0 76428mWCRRaisen, Madhya Pradesh
2.36SMTSalamatpur (3)X  15:36-15:36-  1658.3 76 WCRRaisen, Madhya Pradesh
2.37DWGDewanGanj (3)X  15:43-15:43-  1667.6 76 WCRRaisen, Madhya Pradesh
2.38BVBBhadbhadaghat (2)  15:50-15:50-  1676.4 76474mWCRVidisha Road Bhopal, Madhya Pradesh
2.39SUWSukhisewaniyan (3)  15:56-15:56-  1683.9 76508mWCRBhopal, Madhya Pradesh
2.40NSZNishatpura  16:04-16:04-  1694.2 76492mWCRBhopal, Madhya Pradesh
3BPLBhopal Junction (6)X  16:05+2816:15+2810m11695.266497mWCRBhopal, Madhya Pradesh
3.1HBJBhopal HabibGanj (5)  16:21-16:21-  1701.4 66496mWCRHabibGanj, Madhya Pradesh
3.2MSOMisrod (2)X  16:26-16:26-  1707.6 66468mWCRBhopal, Madhya Pradesh
3.3MDDPMandi Dip (1)  16:35-16:35-  1717.5 66 WCRMandideep, Madhya Pradesh
3.4ITKLItaya Kalan  16:41-16:41-  1723.5 66447mWCRMandideep, Madhya Pradesh
3.5ODGObaidulla GanjX  16:48-16:48-  1731.0 66 WCRObaidullaganj Raisen Dist., Madhya Pradesh
3.6BKABarkheraX  16:58-16:58-  1742.4 66472mWCRBarkhera, Madhya Pradesh
3.7CHQChoka  17:04-17:04-  1749.0 66431mWCRBARKHERA, Madhya Pradesh
3.8MIGMidghat  17:10-17:10-  1754.9 66387mWCRNational Highway 69, Madhya Pradesh
3.9BNIBudni (2)X  17:16-17:16-  1761.8 66311mWCRSehore 466445 Madhya pradesh, Madhya Pradesh
3.10HBDHoshangabad (2)X  17:22-17:22-  1768.8 66308mWCRHoshangabad, Madhya Pradesh
3.11PRKDPowerkhedaX  17:31-17:31-  1778.6 66316mWCRItarsi, Madhya Pradesh
3.12ETFItarsi F Cabin  17:38-17:38-  1785.6 66324mWCRItarsi, Madhya Pradesh
3.13ETItarsi Junction (7)  17:39-17:39-  1786.9 66329mWCRItarsi 461111, Madhya Pradesh
3.14JUHJujharpur Cabin  17:40-17:40-  1788.0 66322mWCRItarsi, Madhya Pradesh
3.15JHPJujharpurX  17:42-17:42-  1790.4 66328mCRItarsi, Madhya Pradesh
3.16KRTHKiratgarh (2)  17:49-17:49-  1797.6 66369mCRItarsi, Madhya Pradesh
3.17KSLAKesla (2)  17:54-17:54-  1803.3 66410mCRNH69, Madhya Pradesh
3.18TAKUTaku (2)  17:59-17:59-  1809.3 66390mCRItarsi, Madhya Pradesh
3.19SAHLSaheli (2)X  18:03-18:03-  1813.3 66388mCRItarsi, Madhya Pradesh
3.20KQEKala Akhar (2)X  18:09-18:09-  1819.9 66376mCRItarsi, Madhya Pradesh
3.21POXPola Patthar (2)  18:15-18:15-  1826.2 66392mCRBetul, Madhya Pradesh
3.22DOHDhodramohar (2)  18:22-18:22-  1834.6 66376mCRBetul, Madhya Pradesh
3.23MGRDMagardoh (2)  18:27-18:27-  1840.3 66393mCRBetul, Madhya Pradesh
3.24BBTRBarbatpur (3)  18:32-18:32-  1845.7 66394mCRBetul, Madhya Pradesh
3.25GDYAGhoradongri (3)X  18:43-18:43-  1857.2 66 CRBetul, Madhya Pradesh
3.26DHQDharakhoh (2)X  18:57-18:57-  1872.3 66482mCRBetul, Madhya Pradesh
3.27MJYMaramjhiri (2)  19:08-19:08-  1885.1 66642mCRBetul, Madhya Pradesh
3.28BZUBetul (3)  19:16-19:16-  1893.2 66644mCRBetul, Madhya Pradesh
3.29MALKMalkapur Road (1)X  19:22-19:22-  1899.6 66668mCRBetul, Madhya Pradesh
3.30BYSBarsali (2)X  19:28-19:28-  1906.3 66699mCRAmla, Madhya Pradesh
3.31AMLAAmla Junction (5)X  19:37-19:37-  1916.1 66733mCRAmla Distt. Betul, Madhya Pradesh
3.32JKRJaulkhera (2)  19:47-19:47-  1927.7 66759mCRNH 69, Madhya Pradesh
3.33MTYMultai (2)  19:58-19:58-  1938.9 66762mCRMultai, Madhya Pradesh
3.34HTNHatna Pur (2)  20:06-20:06-  1948.4 66730mCRNH 69, Madhya Pradesh
3.35CCDChichonda (3)  20:11-20:11-  1954.2 66703mCRNH 69 District Chhindwara, Madhya Pradesh
3.36GDKPGhundankhapa (2)  20:20-20:20-  1963.4 66611mCRMohi, Madhya Pradesh
3.37TEOTeegaon (2)X  20:27-20:27-  1970.9 66 CRBetul, Madhya Pradesh
3.38PARPandhurna (2)  20:35-20:35-  1979.7 66481mCRDistt: Chhindwara, Madhya Pradesh
3.39DDMTDarimeta (2)X  20:43-20:43-  1988.2 66473mCRNarkher, Maharashtra
3.40NRKRNarkher Junction (4)  20:51-20:51-  1998.0 66411mCRNarkher, Maharashtra
3.41TNHTinkheda (2)  20:58-20:58-  11005.0 66415mCRSH 246, Maharashtra
3.42KLBAKalambha (2)  21:05-21:05-  11013.1 66406mCRSH 248, Maharashtra
3.43KATLKatol (2)X  21:14-21:14-  11023.2 66 CRKatol, Maharashtra
3.44MERMetpanjra (3)X  21:23-21:23-  11032.3 66438mCRSH 248, Maharashtra
3.45SNKBSonkhamb (2)X  21:29-21:29-  11039.4 66403mCRSH 248, Maharashtra
3.46KOHLKohli (2)X  21:37-21:37-  11047.6 66368mCRSH 250, Maharashtra
3.47KSWRKalmeshwar (2)X  21:48-21:48-  11059.9 66336mCRKalameshwar, Maharashtra
3.48BWRABharatwada (2)  21:58-21:58-  11070.6 66322mCRNagpur, Maharashtra
3.49GNQGodhani (2)X  22:04-22:04-  11076.9 66312mCRNagpur, Maharashtra
4NGPNagpur Junction (8)X  22:10+2922:20+2910m211084.066314mCRNagpur 440001, Maharashtra
4.1MIBNagpur Moti Bagh (1)  22:21-22:21-  11084.8 66309mCRNagpur, Maharashtra
4.2AJNIAjni (3)  22:23-22:23-  11087.1 66310mCRNagpur 440003, Maharashtra
4.3KRIKhapri (2)  22:31-22:31-  11096.4 66312mCRNagpur, Maharashtra
4.4GMGGumgaon (2)  22:37-22:37-  11102.9 66302mCRNagpur, Maharashtra
4.5BTBRButi Bori (4)  22:45-22:45-  11111.6 66269mCRButi Bori, Maharashtra
4.6BOKBorkhedi  22:52-22:52-  11119.4 66268mCRWardha, Maharashtra
4.7SNISindi (2)  23:02-23:02-  11130.9 66258mCRWardha, Maharashtra
4.8TGPTuljapur (2)  23:10-23:10-  11138.9 66259mCRTuljapur, Maharashtra
4.9SLORSeloo RoadX  23:19-23:19-  11148.9 66256mCRMSH3, Maharashtra
4.10VADRWarud  23:26-23:26-  11156.8 66261mCRSewagram, Maharashtra
4.11SEGMSewagram Junction (5)  23:29-23:29-  11160.2 66279mCRWardha, Maharashtra
4.12CHJCChitodaX  23:32-23:32-  11163.5 66265mCRChitoda, Maharashtra
4.13BPKBhugaon (3)X  23:38-23:38-  11170.6 66267mCRWardha, Maharashtra
4.14SNNSonegaon (2)O  23:44-23:44-  11177.1 66262mCRWardha, Maharashtra
4.15WGWagholi (2)  23:52-23:52-  11185.5 66238mCRWagholi, Maharashtra
4.16HGTHinganghat (3)  23:59-23:59-  11193.4 66228mCRHinganghat, Maharashtra
4.17YNAYenorX  00:04-00:04-  21198.7 66221mCRMumbai, Maharashtra
4.18NGINagriXO  00:14-00:14-  21210.1 66230mCRHinganghat, Maharashtra
4.19CKNIChikni Road (2)  00:25-00:25-  21221.9 66211mCRChandrapur, Maharashtra
4.20WRRWarora (2)X  00:34-00:34-  21232.4 66214mCRWarora, Maharashtra
4.21MJRIMajri Junction (3)  00:45-00:45-  21244.8 66198mCRDist. Chandrapur, Maharashtra
4.22BUXBhandak (5)X  00:54-00:54-  21254.6 66207mCRChandrapur, Maharashtra
4.23TAETadaliX  01:03-01:03-  21264.1 66207mCRTadali, Maharashtra
4.24CPWChotipadoli  01:10-01:10-  21271.8 66187mCRChandrapur, Maharashtra
4.25VVKNVivekananda Nagar  01:11-01:11-  21273.2 66183mCRChandrapur, Maharashtra
4.26CDChandrapur Maharashtra (3)  01:16-01:16-  21278.8 66194mCRChandrapur 442401, Maharashtra
4.27BUPHBabupeth (2)O  01:20-01:20-  21283.3 66196mCRChandrapur, Maharashtra
4.28VSPWasanapura  01:25-01:25-  21288.3 66186mCRVisapur, Maharashtra
4.29GNVRGondwanavisapur  01:25-01:25-  21288.4 66183mCRVisapur, Maharashtra
4.30BPQBalharshah Junction (5)  01:20 01:29-01:30 01:29-  21292.6 66188mCRBallarpur. Ph : 07172 - 240341, Maharashtra
4.31MAGHManikgarh (2)  01:37-01:37-  21302.1 66184mSCRRajura Taluk, Maharashtra
4.32VHGNWihirgaon (2)X  01:45-01:45-  21310.7 66193mSCRPIN - 442905, Maharashtra
4.33WIRRWirur  01:53-01:53-  21320.2 66182mSCRChandrapur, Maharashtra
4.34MKDIMakudi (2)  02:05-02:05-  21333.1 66179mSCRMakudi, Maharashtra
4.35SRURSirpur Town (2)  02:15-02:15-  21344.4 66187mSCRAdilabad Dist., Telangana
4.36VEMVempalliX  02:24-02:24-  21354.1 66209mSCRAdilabad dt., Telangana
4.37SKZRSirpur Kaghaznagar (3)X  02:32-02:32-  21362.3 66181mSCRAdilabad Dist., Telangana
4.38RLTRalapet  02:37-02:37-  21368.8 66185mSCRAdilabad dt., Telangana
4.39ASAFAsifabad Road (2)  02:45-02:45-  21376.7 66210mSCRAdilabad Dist., Telangana
4.40RLWRepalliwada  02:51-02:51-  21384.2 66254mSCRAdilabad Dist., Telangana
4.41RECHRechni Road (2)X  02:57-02:57-  21390.5 66250mSCRAdilabad Dist., Telangana
4.42BPABellampalli (3)X  03:06-03:06-  21400.8 66205mSCRTel:.08735 223298, Telangana
4.43MMZMandamari (4)  03:15-03:15-  21410.4 66176mSCRAdilabad Dist., Telangana
4.44RVKHRavindrakhani (2)X  03:18-03:18-  21414.1 66169mSCRAdilabad Dist., Telangana
4.45MCIManchiryal (3)X  03:24-03:24-  21420.7 66159mSCRAdilabad Dist., Telangana
4.46PPZPeddampet (2)  03:33-03:33-  21429.7 66155mSCRKarimnagar Dist., Telangana
4.47RDMRamagundam (3)  03:37-03:37-  21434.4 66170mSCRKarimnagar Dist. Ph : 08728 - 255237, Telangana
4.48RGPMRaghavapuram (2)  03:46-03:46-  21444.2 66216mSCRKarimnagar Dist., Telangana
4.49PDPLPeddapalli Junction (2)  03:53-03:53-  21452.0 66228mSCRKarimnagar Dist., Telangana
4.50KYOPKottapally  04:00-04:00-  21460.5 66212mSCRKottapalli. Karimnagar Dist., Telangana
4.51KOLRKolanoor (2)  04:05-04:05-  21465.7 66223mSCRKarimnagar Dist., Telangana
4.52OEAOdela (2)  04:09-04:09-  21470.3 66231mSCRKarimnagar Dist., Telangana
4.53PTKPPotkapalli (2)X  04:13-04:13-  21474.5 66219mSCRKarimnagar Dist., Telangana
4.54BGSFBisugir Sharif (2)  04:23-04:23-  21485.0 66227mSCRKarimnagar Dist., Telangana
4.55JMKTJamikunta (2)X  04:28-04:28-  21491.4 66236mSCRKarimnagar Dist., Telangana
4.56OPLUppal (2)  04:39-04:39-  21503.3 66251mSCRKarimnagar Dist., Telangana
4.57HSPHasanparthi Road (3)  04:50-04:50-  21515.2 66262mSCRWarangal Dist., Telangana
4.58KMPTKomatipalli  04:56-04:56-  21521.5 66281mSCRWarangal Dist., Telangana
4.59KZJEKazipet E Cabin  05:00-05:00-  21526.1 66288mSCRWarangal Dist., Telangana
4.60KZJTKazipet Town (1)  05:00-05:00-  21526.1 66289mSCRWarangal Dist., Telangana
4.61KZJKazipet Junction (3)  05:01-05:01-  21527.0 66292mSCRWarangal Dist., Telangana
4.62PQLPindial (2)O  05:08-05:08-  21535.0 66322mSCRWarangal, Telangana
4.63NSKLNaskhal  05:12-05:12-  21540.2 66313mSCRNaskhal, Telangana
4.64GNPGhanpur (2)  05:18-05:18-  21546.9 66344mSCRWarangal Dist. / Enq Ph : 08711 220231, Telangana
4.65IPGIppuguda  05:24-05:24-  21553.0 66360mSCRKurcha Pally Rd, Telangana
4.66RGPRaghunathpalli (2)  05:34-05:34-  21563.6 66357mSCRWarangal Dist., Telangana
4.67YSPMYasantapuru  05:40-05:40-  21570.7 66365mSCRWarangal Dist., Telangana
4.68ZNJangaon (2)X  05:44-05:44-  21574.9 66380mSCRWarangal Dist., Telangana
4.69PBPPembarti (2)  05:49-05:49-  21580.4 66382mSCRWarangal Dist., Telangana
4.70ALERAler (2)O  05:57-05:57-  21590.0 66366mSCRNalgonda Dist., Telangana
4.71WPWangapalli (2)X  06:06-06:06-  21599.8 66393mSCRNalgonda Dist., Telangana
4.72RAGRaigir (2)X  06:12-06:12-  21605.8 66415mSCRNalgonda, Telangana
4.73BGBhongir (3)  06:18-06:18-  21612.3 66455mSCRNalgonda Dist., Telangana
4.74PGDPPagidipalli  06:27-06:27-  21622.3 66428mSCRNalgonda Dist, Telangana
4.75BNBibinagar (2)XO  06:30-06:30-  21625.5 66448mSCRNalgonda Dist., Telangana
4.76GTGhatkesar (2)  06:41-06:41-  21638.4 66481mSCRRangareddy Dist., Telangana
4.77CHZCharlapalli (2)X  06:48-06:48-  21646.3 66523mSCRRangareddy Dist., Telangana
4.78MLYCMoula Ali C Cabin  06:55-06:55-  21653.2 66526mSCRSecunderabad, Telangana
4.79MLYGMoula Ali G Cabin  06:56-06:56-  21654.9 66537mSCRSecunderabad, Telangana
4.80MJFMalkajgiri (3)  06:57-06:57-  21656.0 66535mSCRSecunderabad, Telangana
4.81LGDHLalaguda Gate (2)X  06:58-06:58-  21656.9 66543mSCRSecunderabad, Telangana
4.82STPDSitafalmandi (4)  07:00-07:00-  21659.6 66533mSCRSecunderabad, Telangana
4.83ATCArts College (2)  07:01-07:01-  21660.7 66521mSCRHyderabad, Telangana
4.84JOOJamai Osmania (2)  07:02-07:02-  21661.3 66515mSCRHyderabad, Telangana
4.85VARVidya Nagar (2)  07:03-07:03-  21662.8 66505mSCRHyderabad, Telangana
5KCGHyderabad Kacheguda (5)X07:05+2107:15+4010m221664.762494mSCRHyderabad - 500027, Telangana
5.1MXTMalakpet (2)  07:17-07:17-  21666.3 62494mSCRHyderabad, Telangana
5.2DQRDabirpura (2)  07:18-07:18-  21667.5 62500mSCRHyderabad, Telangana
5.3YKAYakutpura (2)X  07:19-07:19-  21668.3 62505mSCRHyderabad, Telangana
5.4HPGHuppuguda (2)  07:21-07:21-  21670.7 62520mSCRHyderabad, Telangana
5.5FMFalaknuma (3)  07:22-07:22-  21672.0 62523mSCRHyderabad, Telangana
5.6NSVPNPA Shivram Pally (1)  07:27-07:27-  21676.7 62541mSCRHyderabad, Telangana
5.7BDVLBudvel (2)X  07:29-07:29-  21678.6 62556mSCRHyderabad, Telangana
5.8URUmdanagar (3)X  07:35-07:35-  21685.1 62581mSCRHyderabad, Telangana
5.9TMXTimmapur (2)  07:51-07:51-  21701.6 62582mSCRMahabubnagar Dist., Telangana
5.10KOTTKottur (1)  07:53-07:53-  21703.8 62591mSCR, Telangana
5.11HBLNHBL Nagar (1)X  07:55-07:55-  21706.0 62607mSCR, Telangana
5.12SHNRShadnagar (3)X  08:05-08:05-  21716.5 62648mSCRMahabubnagar Dist., Telangana
5.13BRGLBurgula (1)  08:13-08:13-  21724.5 62597mSCR, Telangana
5.14BABRBalanagar (3)  08:19-08:19-  21730.1 62566mSCR, Telangana
5.15RRGARanga Reddy Guda (1)X  08:24-08:24-  21735.5 62564mSCR, Telangana
5.16RJAPRajapur (1)  08:29-08:29-  21740.6 62541mSCR, Telangana
5.17GLYGollapally (1)  08:34-08:34-  21745.4 62556mSCR, Telangana
5.18JCLJadcherla (3)X  08:41-08:41-  21752.9 62545mSCR509301, Telangana
5.19DTPDivitipalli (2)  08:48-08:48-  21760.6 62520mSCRMahbubnagar Dist., Telangana
5.20YNGYenugonda (1)  08:54-08:54-  21766.5 62508mSCRMahabubnagar Dist., Telangana
5.21MBNRMahbubnagar (3)  08:58-08:58-  21770.5 62500mSCRMahbubnagar, Telangana
5.22MHBTMahbubnagar Town Halt (1)  09:01-09:01-  21773.1 62500mSCRMahbubnagar, Telangana
5.23MQNManyamkonda (1)X  09:12-09:12-  21784.5 62410mSCRMahbubnagar Dist., Telangana
5.24KTKAKotakadra (1)  09:16-09:16-  21788.8 62409mSCRMahbubnagar Dist., Telangana
5.25DKCDevarkadra (1)  09:22-09:22-  21795.0 62390mSCRMahbubnagar Dist., Telangana
5.26DKURDokur (1)  09:26-09:26-  21799.7 62383mSCRMahbubnagar Dist, Telangana
5.27KQQKaukuntla (1)  09:32-09:32-  21805.6 62372mSCR, Telangana
5.28KXIKurumurthi (1)  09:37-09:37-  21810.6 62361mSCRMahbubnagar Dist., Telangana
5.29KONNKonnur (1)  09:45-09:45-  21819.1 62346mSCRMahbubnagar Dist., Telangana
5.30WPRWanaparti Road (2)  09:50-09:50-  21823.9 62330mSCRMahbubnagar Dist., Telangana
5.31AJKAjjakolu (1)  09:54-09:54-  21828.0 62316mSCR, Telangana
5.32SRNRSriramnagar (2)X  09:59-09:59-  21833.0 62311mSCRMahbubnagar Dist., Telangana
5.33ARPLArepalli Halt (1)O  10:03-10:03-  21837.1 62301mSCRMahbubnagar Dist., Telangana
5.34GWDGadwal Junction (2)  10:11-10:11-  21845.6 62327mSCRMahbubnagar Dist., Telangana
5.35PDOPoodoor (1)X  10:19-10:19-  21853.7 62330mSCRMahabubnagar Dist 509125, Telangana
5.36PDNAPeddadinne (1)  10:25-10:25-  21860.2 62319mSCR, Telangana
5.37IKIItikyala (1)  10:29-10:29-  21863.8 62324mSCR, Telangana
5.38VAHValluru Halt  10:38-10:38-  21873.2 62317mSCRVallur Road, Telangana
5.39MOAManopad (1)  10:42-10:42-  21877.2 62310mSCRMahbubnagar Dist., Telangana
5.40SBBJSri Bala Brahmeswara Jogulamba Halt (1)  10:56-10:56-  21891.1 62312mSCRMahabubnagar Dist., Telangana
5.41ALPRAlampur Road (1)O  10:58-10:58-  21893.6 62308mSCR, Telangana
6KRNTKurnool City (3)  11:05+3911:07+392m--21900.862293mSCRKurnool Ph:08518-220110, Andhra Pradesh
7DMMDharmavaram Junction (5)  15:15+2615:20+265m122155.546371mSCRDharmavaram, Andhra Pradesh
7.1NGMNagasamudram (1)  15:39-15:39-  22170.4 46423mSWRRayalaseema Region, Andhra Pradesh
7.2MKJMakkajipalli (1)X  15:59-15:59-  22185.3 46491mSWRGutturu, Andhra Pradesh
7.3PKDPenukonda Junction (2)X  16:15-16:15-  22197.3 46548mSWRNH 7 Anantapur District, Andhra Pradesh
7.4REPIRangepalli (2)  16:31-16:31-  22210.0 46629mSWRAnantapur Dist., Andhra Pradesh
7.5CPLChakarlapalli (1)X  16:34-16:34-  22211.6 46635mSWRAnantpur, Andhra Pradesh
7.6MLUMalugur (2)  16:50-16:50-  22224.4 46629mSWRHindupur, Andhra Pradesh
7.7HUPHindupur (4)X  17:04-17:04-  22234.9 46636mSWRHindupur, Andhra Pradesh
7.8DPEDevarapalle (2)  17:18-17:18-  22245.5 46674mSWRState Highway 9, Andhra Pradesh
7.9VWAViduraswattha (1)  17:27-17:27-  22252.1 46678mSWRState Highway 9, Karnataka
7.10GBDGauribidanur (3)X  17:35-17:35-  22258.3 46684mSWRChikkaballapur Dist., Karnataka
7.11SMWASomeshwara (2)  17:43-17:43-  22264.2 46716mSWRState Highway 9, Karnataka
7.12TDVThondebhavi (1)X  17:52-17:52-  22271.0 46755mSWRTondebavi, Karnataka
7.13MKLMakalidurga (1)X  18:03-18:03-  22280.0 46833mSWRMakalidurga, Karnataka
7.14ORHOddarahalli (1)X  18:17-18:17-  22290.3 46904mSWROddarahalli, Karnataka
7.15DBUDodballapur (4)X  18:27-18:27-  22297.7 46896mSWRDoddaballapur, Karnataka
7.16RNNRajanukunte (2)  18:42-18:42-  22309.7 46915mSWRDoddaballapur Rd, Karnataka
7.17YNKYelahanka Junction (4)  18:54-18:54-  22318.4 46911mSWRBengaluru-560064, Karnataka
7.18KDGHKodigehalli (2)  19:01-19:01-  22323.8 46914mSWRBangalore, Karnataka
7.19LOGHLottegollahalli (2)  19:04-19:04-  22326.3 46908mSWRBengaluru-94, Karnataka
8YPR•Yesvantpur Junction (6)•  19:10+41-422330.7-919mSWRBengaluru 560022, Karnataka
Scroll to Top
Scroll to Bottom